Time;durP1;ratioP1;P1;durP2;ratioP2;P2;SDS_P1;SDS_P2;PMS_P1;PMS_P2;Temp;Humidity;BMP_temperature;BMP_pressure;BME280_temperature;BME280_humidity;BME280_pressure;Samples;Min_cycle;Max_cycle;Signal;HPM_P1;HPM_P2
2022/12/28 00:04:24;;;;;;;7.13;6.27;;;5.10;40.40;;;;;;10379528;28;20226;-76
2022/12/28 00:09:27;;;;;;;6.73;5.90;;;5.10;40.40;;;;;;10371662;28;20242;-76
2022/12/28 00:14:32;;;;;;;7.00;6.30;;;5.10;40.40;;;;;;10367177;28;20222;-76
2022/12/28 00:19:35;;;;;;;6.60;6.00;;;5.10;40.40;;;;;;10366169;28;20226;-76
2022/12/28 00:24:38;;;;;;;6.43;5.83;;;5.00;40.30;;;;;;10369263;28;20221;-76
2022/12/28 00:29:43;;;;;;;7.13;6.40;;;5.00;40.60;;;;;;10364285;28;20233;-73
2022/12/28 00:34:46;;;;;;;8.03;6.27;;;4.90;41.00;;;;;;10376405;28;20226;-73
2022/12/28 00:39:49;;;;;;;7.23;6.20;;;4.90;41.00;;;;;;10374430;28;20230;-73
2022/12/28 00:44:53;;;;;;;7.53;6.30;;;4.90;40.90;;;;;;10367924;28;20218;-73
2022/12/28 00:49:56;;;;;;;6.63;5.50;;;4.80;41.10;;;;;;10367370;28;20336;-73
2022/12/28 00:55:00;;;;;;;6.43;5.40;;;4.80;41.10;;;;;;10370594;28;20230;-73
2022/12/28 01:00:05;;;;;;;7.17;6.20;;;4.80;41.20;;;;;;10366319;28;20221;-73
2022/12/28 01:05:09;;;;;;;6.37;5.33;;;4.80;41.40;;;;;;10377761;28;20233;-73
2022/12/28 01:10:12;;;;;;;5.83;5.23;;;4.90;41.40;;;;;;10366265;28;20232;-73
2022/12/28 01:15:17;;;;;;;6.13;5.37;;;4.90;41.30;;;;;;10369714;28;20318;-73
2022/12/28 01:20:20;;;;;;;7.53;6.23;;;4.90;41.20;;;;;;10362135;28;20693;-76
2022/12/28 01:25:23;;;;;;;6.57;5.73;;;4.90;41.00;;;;;;10363564;28;20726;-76
2022/12/28 01:30:29;;;;;;;6.33;5.40;;;5.00;41.20;;;;;;10368216;28;20226;-75
2022/12/28 01:35:32;;;;;;;5.87;5.23;;;5.00;41.10;;;;;;10370401;28;20600;-77
2022/12/28 01:40:35;;;;;;;5.93;5.33;;;4.90;41.00;;;;;;10376433;28;20225;-76
2022/12/28 01:45:40;;;;;;;7.23;5.43;;;4.90;41.10;;;;;;10368120;28;20228;-76
2022/12/28 01:50:44;;;;;;;7.10;5.50;;;4.90;41.90;;;;;;10371338;28;20313;-78
2022/12/28 01:55:48;;;;;;;5.20;4.70;;;4.90;41.10;;;;;;10366986;28;20275;-76
2022/12/28 02:00:52;;;;;;;5.43;4.93;;;4.90;41.20;;;;;;10366604;28;20767;-76
2022/12/28 02:05:59;;;;;;;6.27;4.67;;;4.90;41.20;;;;;;10366176;28;20812;-76
2022/12/28 02:11:03;;;;;;;4.73;4.30;;;4.90;41.40;;;;;;10363423;28;20241;-75
2022/12/28 02:16:10;;;;;;;5.77;4.43;;;4.90;41.40;;;;;;10369052;28;20233;-76
2022/12/28 02:21:22;;;;;;;5.17;4.67;;;4.90;41.70;;;;;;10360856;28;20263;-75
2022/12/28 02:26:44;;;;;;;6.03;4.57;;;4.90;41.70;;;;;;10368024;28;20233;-75
2022/12/28 02:31:57;;;;;;;6.23;5.63;;;4.90;42.10;;;;;;10364116;28;20218;-76
2022/12/28 02:37:03;;;;;;;6.93;5.17;;;4.90;42.60;;;;;;10361973;28;20230;-75
2022/12/28 02:42:09;;;;;;;6.17;5.30;;;4.90;42.60;;;;;;10369327;28;20222;-75
2022/12/28 02:53:02;;;;;;;5.10;4.63;;;4.90;43.00;;;;;;10366201;28;20218;-76
2022/12/28 02:58:28;;;;;;;5.40;4.73;;;4.90;43.40;;;;;;10366208;28;20222;-75
2022/12/28 03:03:42;;;;;;;4.97;4.53;;;4.90;43.70;;;;;;10361842;28;20227;-70
2022/12/28 03:08:56;;;;;;;5.03;4.50;;;4.90;43.60;;;;;;10365489;28;20230;-69
2022/12/28 03:14:03;;;;;;;5.10;4.60;;;4.90;44.00;;;;;;10368966;28;20250;-69
2022/12/28 03:35:26;;;;;;;6.13;4.53;;;4.90;43.70;;;;;;10371083;28;20957;-70
2022/12/28 03:40:37;;;;;;;4.90;4.37;;;4.90;43.90;;;;;;10367487;28;20230;-69
2022/12/28 03:45:52;;;;;;;5.43;4.87;;;4.90;43.80;;;;;;10370911;28;20230;-69
2022/12/28 03:50:57;;;;;;;5.23;4.30;;;5.00;43.90;;;;;;10374336;28;20245;-69
2022/12/28 03:56:08;;;;;;;5.87;4.50;;;5.00;43.40;;;;;;10371256;28;20230;-70
2022/12/28 04:01:11;;;;;;;4.60;4.20;;;5.00;43.80;;;;;;10369753;28;20234;-69
2022/12/28 04:06:17;;;;;;;4.60;4.20;;;5.00;43.10;;;;;;10367478;28;20234;-70
2022/12/28 04:11:20;;;;;;;5.63;4.07;;;5.00;43.40;;;;;;10370288;28;20232;-70
2022/12/28 04:16:24;;;;;;;4.63;4.23;;;5.00;43.20;;;;;;10374451;28;21065;-70
2022/12/28 04:21:28;;;;;;;4.60;4.20;;;5.00;43.30;;;;;;10365999;28;20217;-70
2022/12/28 04:26:31;;;;;;;4.57;3.93;;;5.00;43.70;;;;;;10372659;28;20226;-69
2022/12/28 04:31:34;;;;;;;4.40;3.97;;;5.00;43.70;;;;;;10367239;28;20609;-69
2022/12/28 04:36:39;;;;;;;3.80;3.50;;;5.00;43.80;;;;;;10370105;28;20222;-69
2022/12/28 04:41:42;;;;;;;4.13;3.70;;;5.10;44.10;;;;;;10373702;28;20222;-69
2022/12/28 04:46:45;;;;;;;4.40;4.00;;;5.20;43.90;;;;;;10367468;28;20230;-69
2022/12/28 04:51:50;;;;;;;4.17;3.77;;;5.20;43.80;;;;;;10370517;28;20800;-69
2022/12/28 04:56:54;;;;;;;4.00;3.63;;;5.30;44.00;;;;;;10375510;28;20223;-69
2022/12/28 05:01:57;;;;;;;4.47;3.80;;;5.30;43.90;;;;;;10365883;28;20234;-69
2022/12/28 05:07:01;;;;;;;5.37;4.87;;;5.40;44.00;;;;;;10372610;28;20230;-69
2022/12/28 05:12:05;;;;;;;4.30;3.97;;;5.40;44.10;;;;;;10366924;28;20230;-69
2022/12/28 05:17:08;;;;;;;4.37;3.97;;;5.40;43.90;;;;;;10363018;28;20237;-69
2022/12/28 05:22:14;;;;;;;3.63;3.33;;;5.40;44.00;;;;;;10365579;28;20233;-69
2022/12/28 05:27:17;;;;;;;3.70;3.40;;;5.40;44.10;;;;;;10369164;28;20233;-69
2022/12/28 05:32:20;;;;;;;3.83;3.53;;;5.40;44.00;;;;;;10363042;28;20241;-69
2022/12/28 05:37:25;;;;;;;3.90;3.43;;;5.40;43.90;;;;;;10369599;28;20226;-69
2022/12/28 05:42:28;;;;;;;4.03;3.73;;;5.50;44.10;;;;;;10365803;28;20229;-69
2022/12/28 05:47:31;;;;;;;5.40;4.27;;;5.50;43.90;;;;;;10362424;28;20230;-69
2022/12/28 05:52:36;;;;;;;4.17;3.80;;;5.50;43.90;;;;;;10369016;28;20229;-69
2022/12/28 05:57:40;;;;;;;4.30;3.90;;;5.60;44.10;;;;;;10367271;28;20291;-69
2022/12/28 06:02:43;;;;;;;3.83;3.53;;;5.60;43.90;;;;;;10368632;28;20218;-69
2022/12/28 06:07:51;;;;;;;4.80;4.30;;;5.60;43.80;;;;;;10362277;28;20323;-69
2022/12/28 06:12:54;;;;;;;3.80;3.50;;;5.60;44.00;;;;;;10362589;28;20768;-69
2022/12/28 06:17:57;;;;;;;4.03;3.63;;;5.70;43.80;;;;;;10364356;28;20226;-69
2022/12/28 06:23:01;;;;;;;3.50;3.20;;;5.60;43.80;;;;;;10361924;28;20226;-69
2022/12/28 06:28:05;;;;;;;2.77;2.57;;;5.70;44.30;;;;;;10367088;28;20229;-69
2022/12/28 06:33:08;;;;;;;3.50;3.10;;;5.60;44.20;;;;;;10362852;28;20238;-69
2022/12/28 06:38:12;;;;;;;3.03;2.60;;;5.70;44.30;;;;;;10363896;28;20223;-69
2022/12/28 06:43:15;;;;;;;2.97;2.60;;;5.60;44.50;;;;;;10366638;28;20797;-69
2022/12/28 06:48:18;;;;;;;2.83;2.57;;;5.70;44.60;;;;;;10364913;28;20238;-69
2022/12/28 06:53:23;;;;;;;3.60;3.30;;;5.80;44.70;;;;;;10377982;28;20241;-73
2022/12/28 06:58:27;;;;;;;3.53;3.23;;;5.80;44.80;;;;;;10376420;28;20851;-73
2022/12/28 07:03:30;;;;;;;3.20;2.90;;;5.80;44.70;;;;;;10373746;28;20627;-73
2022/12/28 07:08:35;;;;;;;3.00;2.70;;;5.90;44.60;;;;;;10380260;28;20233;-72
2022/12/28 07:13:39;;;;;;;2.67;2.47;;;6.00;44.80;;;;;;10373265;28;20225;-73
2022/12/28 07:18:43;;;;;;;3.53;3.23;;;6.00;44.60;;;;;;10367050;28;20218;-73
2022/12/28 07:23:47;;;;;;;2.90;2.60;;;6.10;44.60;;;;;;10375326;28;20225;-72
2022/12/28 07:28:52;;;;;;;3.33;3.03;;;6.10;44.60;;;;;;10374230;28;20230;-72
2022/12/28 07:33:56;;;;;;;2.50;2.30;;;6.20;44.50;;;;;;10369386;28;20223;-72
2022/12/28 07:39:01;;;;;;;3.20;2.90;;;6.20;44.40;;;;;;10371881;28;20226;-72
2022/12/28 07:44:04;;;;;;;3.57;3.07;;;6.20;44.60;;;;;;10373173;28;20233;-72
2022/12/28 07:49:08;;;;;;;3.47;3.17;;;6.20;44.40;;;;;;10365937;28;20229;-71
2022/12/28 07:54:12;;;;;;;3.17;2.87;;;6.20;44.40;;;;;;10373336;28;20338;-72
2022/12/28 07:59:15;;;;;;;3.47;3.03;;;6.20;44.50;;;;;;10365048;28;20238;-71
2022/12/28 08:04:19;;;;;;;3.00;2.80;;;6.30;44.50;;;;;;10373957;28;20226;-71
2022/12/28 08:09:23;;;;;;;3.63;3.33;;;6.20;44.50;;;;;;10370802;28;20233;-71
2022/12/28 08:14:26;;;;;;;4.50;4.10;;;6.20;44.70;;;;;;10364772;28;20218;-71
2022/12/28 08:19:29;;;;;;;4.10;3.70;;;6.20;44.60;;;;;;10366379;28;20261;-71
2022/12/28 08:24:34;;;;;;;6.40;4.87;;;6.30;44.70;;;;;;10368284;28;20921;-71
2022/12/28 08:29:37;;;;;;;4.13;3.50;;;6.30;44.90;;;;;;10372297;28;20241;-71
2022/12/28 08:34:40;;;;;;;4.00;3.60;;;6.40;44.80;;;;;;10369178;28;20226;-71
2022/12/28 08:39:45;;;;;;;3.83;3.30;;;6.40;44.80;;;;;;10373318;28;20280;-71
2022/12/28 08:44:48;;;;;;;3.33;3.10;;;6.50;45.10;;;;;;10373605;28;20226;-72
2022/12/28 08:49:51;;;;;;;3.23;2.90;;;6.50;44.90;;;;;;10368998;28;20230;-72
2022/12/28 08:54:55;;;;;;;2.50;2.30;;;6.60;45.10;;;;;;10368528;28;20218;-72
2022/12/28 08:59:59;;;;;;;2.30;2.20;;;6.70;45.40;;;;;;10366673;28;20227;-72
2022/12/28 09:05:02;;;;;;;2.37;2.17;;;6.80;45.30;;;;;;10362629;28;20226;-71
2022/12/28 09:10:07;;;;;;;1.90;1.80;;;6.90;45.30;;;;;;10363448;28;20311;-72
2022/12/28 09:15:11;;;;;;;2.10;2.00;;;7.00;45.50;;;;;;10367902;28;20229;-72
2022/12/28 09:20:14;;;;;;;2.33;2.00;;;7.10;45.30;;;;;;10364991;28;20222;-72
2022/12/28 09:25:19;;;;;;;3.87;3.57;;;7.20;45.40;;;;;;10365421;28;20238;-72
2022/12/28 09:30:22;;;;;;;2.47;2.27;;;7.30;45.50;;;;;;10377581;28;20233;-76
2022/12/28 09:35:25;;;;;;;2.57;2.23;;;7.50;45.50;;;;;;10364579;28;20646;-76
2022/12/28 09:40:29;;;;;;;2.23;2.03;;;7.60;45.40;;;;;;10365938;28;20589;-76
2022/12/28 09:45:33;;;;;;;1.83;1.73;;;7.70;45.60;;;;;;10367865;28;20590;-76
2022/12/28 09:50:37;;;;;;;2.30;2.10;;;7.90;45.50;;;;;;10365985;28;20570;-76
2022/12/28 09:55:48;;;;;;;2.10;2.00;;;8.00;45.20;;;;;;10367819;28;20288;-76
2022/12/28 10:00:53;;;;;;;2.40;2.00;;;8.20;45.40;;;;;;10369084;28;20237;-76
2022/12/28 10:05:57;;;;;;;1.80;1.70;;;8.30;45.40;;;;;;10366020;28;20237;-76
2022/12/28 10:11:02;;;;;;;1.67;1.53;;;8.40;45.20;;;;;;10370017;28;20226;-76
2022/12/28 10:16:07;;;;;;;1.83;1.67;;;8.60;45.30;;;;;;10362602;28;20237;-76
2022/12/28 10:21:11;;;;;;;2.10;1.80;;;8.70;45.20;;;;;;10365834;28;20230;-76
2022/12/28 10:26:18;;;;;;;1.93;1.83;;;8.90;45.20;;;;;;10372639;28;20749;-76
2022/12/28 10:31:32;;;;;;;2.50;2.30;;;9.10;45.10;;;;;;10373921;28;20235;-76
2022/12/28 10:36:35;;;;;;;2.10;1.90;;;9.20;44.50;;;;;;10372510;28;20261;-76
2022/12/28 10:41:40;;;;;;;2.40;2.00;;;9.40;44.60;;;;;;10370171;28;20222;-77
2022/12/28 10:46:52;;;;;;;2.43;2.07;;;9.50;44.40;;;;;;10374769;28;20229;-77
2022/12/28 10:52:06;;;;;;;6.07;3.53;;;9.60;44.00;;;;;;10379358;28;20727;-78
2022/12/28 10:57:16;;;;;;;2.53;2.17;;;9.70;43.80;;;;;;10373485;28;20238;-77
2022/12/28 11:02:26;;;;;;;2.90;2.33;;;9.80;44.10;;;;;;10379412;28;20597;-78
2022/12/28 11:07:33;;;;;;;2.20;1.77;;;9.80;44.70;;;;;;10377363;28;20603;-78
2022/12/28 11:12:43;;;;;;;2.07;1.40;;;10.00;43.30;;;;;;10376305;28;20238;-78
2022/12/28 11:17:52;;;;;;;1.83;1.63;;;10.10;43.20;;;;;;10375411;28;20234;-78
2022/12/28 11:22:56;;;;;;;2.20;1.80;;;10.30;43.40;;;;;;10366261;28;20226;-77
2022/12/28 11:28:01;;;;;;;2.40;1.60;;;10.50;43.30;;;;;;10368964;28;20238;-77
2022/12/28 11:33:08;;;;;;;1.73;1.50;;;10.70;42.90;;;;;;10369217;28;20650;-77
2022/12/28 11:38:38;;;;;;;1.90;1.70;;;10.80;42.90;;;;;;10365337;28;20285;-77
2022/12/28 11:43:54;;;;;;;2.73;2.07;;;11.00;42.00;;;;;;10372341;28;20222;-77
2022/12/28 11:48:58;;;;;;;3.40;2.40;;;11.10;41.40;;;;;;10376648;28;20236;-77
2022/12/28 11:54:04;;;;;;;3.97;2.80;;;11.10;41.90;;;;;;10367446;28;20245;-71
2022/12/28 11:59:23;;;;;;;3.97;2.70;;;11.10;41.70;;;;;;10371529;28;20651;-75
2022/12/28 12:04:32;;;;;;;5.60;3.97;;;11.10;41.10;;;;;;10370813;28;20225;-77
2022/12/28 12:09:44;;;;;;;2.83;2.50;;;11.10;41.10;;;;;;10372605;28;20233;-77
2022/12/28 12:14:54;;;;;;;2.07;1.60;;;11.10;40.90;;;;;;10366339;28;20222;-77
2022/12/28 12:20:02;;;;;;;1.13;1.00;;;11.10;40.90;;;;;;10375137;28;20238;-77
2022/12/28 12:25:14;;;;;;;2.30;1.60;;;11.20;41.00;;;;;;10376331;28;20222;-77
2022/12/28 12:30:20;;;;;;;1.50;1.23;;;11.20;41.00;;;;;;10369631;28;20230;-77
2022/12/28 12:35:27;;;;;;;1.90;1.53;;;11.20;41.00;;;;;;10370105;28;20579;-77
2022/12/28 12:40:56;;;;;;;1.47;1.10;;;11.30;41.10;;;;;;10373397;28;20710;-77
2022/12/28 12:46:23;;;;;;;3.60;1.20;;;11.40;41.20;;;;;;10369696;28;20234;-77
2022/12/28 12:51:31;;;;;;;1.87;1.30;;;11.50;40.80;;;;;;10366892;28;20234;-77
2022/12/28 12:56:45;;;;;;;1.37;1.27;;;11.60;41.00;;;;;;10369491;28;20232;-77
2022/12/28 13:01:55;;;;;;;2.10;1.27;;;11.70;40.40;;;;;;10366093;28;20602;-77
2022/12/28 13:07:01;;;;;;;1.30;0.90;;;11.90;40.80;;;;;;10366278;28;20292;-77
2022/12/28 13:12:13;;;;;;;1.20;1.10;;;12.00;40.70;;;;;;10361638;28;20231;-76
2022/12/28 13:17:20;;;;;;;2.43;1.40;;;12.00;39.60;;;;;;10365970;28;20226;-77
2022/12/28 13:22:28;;;;;;;1.73;0.93;;;12.10;40.30;;;;;;10370239;28;20574;-77
2022/12/28 13:27:34;;;;;;;2.60;1.97;;;12.10;40.00;;;;;;10365443;28;20222;-77
2022/12/28 13:32:50;;;;;;;3.83;3.53;;;12.10;40.30;;;;;;10363993;28;20237;-77
2022/12/28 13:38:04;;;;;;;2.80;1.80;;;12.20;40.00;;;;;;10365936;28;20223;-77
2022/12/28 13:43:35;;;;;;;1.63;1.53;;;12.20;40.20;;;;;;10366037;28;20226;-75
2022/12/28 13:48:42;;;;;;;3.07;1.90;;;12.30;40.20;;;;;;10380413;28;20233;-77
2022/12/28 13:53:49;;;;;;;4.17;2.60;;;12.30;40.50;;;;;;10360864;28;20233;-77
2022/12/28 13:58:57;;;;;;;4.30;2.40;;;12.30;40.30;;;;;;10372132;28;20226;-77
2022/12/28 14:04:05;;;;;;;3.30;2.10;;;12.40;40.20;;;;;;10364897;28;20295;-77
2022/12/28 14:09:29;;;;;;;2.50;2.00;;;12.30;39.70;;;;;;10364447;28;20225;-77
2022/12/28 14:14:33;;;;;;;2.33;1.50;;;12.40;40.20;;;;;;10366786;28;20646;-77
2022/12/28 14:19:38;;;;;;;2.03;1.57;;;12.40;40.20;;;;;;10370043;28;20714;-77
2022/12/28 14:24:59;;;;;;;1.70;1.60;;;12.30;40.00;;;;;;10370436;28;20703;-77
2022/12/28 14:35:19;;;;;;;2.03;1.10;;;12.30;40.20;;;;;;10384867;28;20687;-76
2022/12/28 14:40:29;;;;;;;1.40;1.30;;;12.20;39.40;;;;;;10390612;28;20241;-77
2022/12/28 14:45:38;;;;;;;2.13;1.40;;;12.20;39.40;;;;;;10386760;28;20236;-77
2022/12/28 14:51:05;;;;;;;2.37;1.77;;;12.10;39.80;;;;;;10386957;28;20735;-72
2022/12/28 14:56:10;;;;;;;3.53;1.77;;;12.10;39.60;;;;;;10386600;28;20227;-77
2022/12/28 15:01:15;;;;;;;1.50;1.40;;;12.10;39.80;;;;;;10387046;28;20222;-77
2022/12/28 15:06:25;;;;;;;2.77;1.70;;;12.10;40.00;;;;;;10385205;28;20260;-77
2022/12/28 15:11:30;;;;;;;2.67;2.07;;;12.10;40.50;;;;;;10400886;28;20238;-77
2022/12/28 15:16:33;;;;;;;2.27;1.97;;;12.10;39.80;;;;;;10389004;28;20229;-77
2022/12/28 15:21:37;;;;;;;2.60;2.40;;;12.10;40.00;;;;;;10389237;28;20234;-77
2022/12/28 15:26:40;;;;;;;5.60;3.77;;;12.00;39.60;;;;;;10391508;28;20222;-77
2022/12/28 15:31:43;;;;;;;3.83;3.30;;;12.00;39.80;;;;;;10394286;28;20222;-77
2022/12/28 15:36:48;;;;;;;5.23;3.40;;;12.00;39.90;;;;;;10391417;28;20280;-77
2022/12/28 15:41:51;;;;;;;5.23;4.73;;;11.90;39.70;;;;;;10394714;28;20233;-77
2022/12/28 15:46:54;;;;;;;7.43;6.73;;;11.80;39.80;;;;;;10395049;28;20241;-77
2022/12/28 15:51:59;;;;;;;10.70;9.60;;;11.80;39.80;;;;;;10394287;28;20246;-77
2022/12/28 15:57:02;;;;;;;15.70;12.13;;;11.70;39.70;;;;;;10388819;28;20620;-74
2022/12/28 16:02:05;;;;;;;15.87;13.67;;;11.70;40.00;;;;;;10388940;28;20886;-77
2022/12/28 16:07:10;;;;;;;21.20;17.13;;;11.60;39.90;;;;;;10394978;28;20718;-76
2022/12/28 16:12:16;;;;;;;18.67;15.47;;;11.60;39.70;;;;;;10391102;28;20255;-77
2022/12/28 16:17:19;;;;;;;13.73;12.20;;;11.50;39.80;;;;;;10385911;28;20808;-77
2022/12/28 16:22:23;;;;;;;13.77;11.17;;;11.40;39.80;;;;;;10392942;28;20268;-77
2022/12/28 16:27:27;;;;;;;10.23;8.73;;;11.40;39.70;;;;;;10387646;28;20222;-77
2022/12/28 16:32:30;;;;;;;9.60;6.30;;;11.30;39.80;;;;;;10387785;28;20268;-77
2022/12/28 16:37:34;;;;;;;8.23;7.13;;;11.20;39.80;;;;;;10378881;28;20222;-77
2022/12/28 16:42:38;;;;;;;8.20;7.33;;;11.20;39.60;;;;;;10388541;28;20225;-77
2022/12/28 16:47:41;;;;;;;9.47;8.53;;;11.10;39.80;;;;;;10397284;28;20226;-77
2022/12/28 16:52:48;;;;;;;8.77;7.93;;;11.00;39.80;;;;;;10378595;28;20656;-77
2022/12/28 16:57:51;;;;;;;11.67;10.47;;;10.80;39.70;;;;;;10397178;28;20244;-77
2022/12/28 17:02:54;;;;;;;9.90;8.87;;;10.80;39.90;;;;;;10381117;28;20670;-77
2022/12/28 17:07:59;;;;;;;8.20;7.40;;;10.70;39.80;;;;;;10391748;28;20240;-77
2022/12/28 17:13:02;;;;;;;14.57;13.07;;;10.60;39.70;;;;;;10386345;28;20232;-75
2022/12/28 17:18:05;;;;;;;13.13;11.20;;;10.50;39.80;;;;;;10377823;28;20246;-77
2022/12/28 17:23:10;;;;;;;12.43;11.13;;;10.40;39.70;;;;;;10381272;28;20574;-76
2022/12/28 17:28:13;;;;;;;13.37;11.87;;;10.30;39.60;;;;;;10377965;28;20230;-77
2022/12/28 17:33:16;;;;;;;11.83;10.07;;;10.30;39.70;;;;;;10389838;28;20704;-76
2022/12/28 17:38:21;;;;;;;9.67;8.20;;;10.10;40.00;;;;;;10382358;28;20230;-77
2022/12/28 17:43:24;;;;;;;8.67;7.23;;;10.10;39.90;;;;;;10384476;28;20788;-77
2022/12/28 17:48:29;;;;;;;8.47;7.60;;;10.00;39.90;;;;;;10394832;28;20222;-77
2022/12/28 17:53:34;;;;;;;8.50;7.70;;;9.90;40.80;;;;;;10392117;28;20230;-77
2022/12/28 17:58:38;;;;;;;9.63;8.73;;;9.90;40.80;;;;;;10374848;28;20227;-77
2022/12/28 18:03:41;;;;;;;8.97;8.07;;;9.80;40.70;;;;;;10382543;28;20233;-77
2022/12/28 18:08:46;;;;;;;9.20;7.93;;;9.80;40.70;;;;;;10385444;28;20727;-77
2022/12/28 18:13:49;;;;;;;10.63;9.70;;;9.80;40.60;;;;;;10386509;28;20223;-77
2022/12/28 18:18:53;;;;;;;8.43;7.67;;;9.70;40.50;;;;;;10379619;28;20221;-77
2022/12/28 18:23:57;;;;;;;8.67;6.57;;;9.70;40.40;;;;;;10386457;28;20226;-77
2022/12/28 18:29:00;;;;;;;5.70;5.07;;;9.60;40.40;;;;;;10385768;28;20236;-77
2022/12/28 18:34:03;;;;;;;5.83;4.93;;;9.50;40.40;;;;;;10385783;28;20230;-76
2022/12/28 18:39:08;;;;;;;6.40;4.70;;;9.40;40.40;;;;;;10391484;28;20232;-77
2022/12/28 18:44:11;;;;;;;4.17;3.77;;;9.30;40.30;;;;;;10396166;28;20960;-77
2022/12/28 18:49:14;;;;;;;5.23;4.77;;;9.20;40.20;;;;;;10389351;28;20234;-76
2022/12/28 18:54:19;;;;;;;8.03;5.30;;;9.20;40.20;;;;;;10390734;28;20237;-77
2022/12/28 18:59:22;;;;;;;6.67;4.50;;;9.20;40.20;;;;;;10391806;28;20234;-77
2022/12/28 19:04:25;;;;;;;5.20;4.30;;;9.10;40.10;;;;;;10393432;28;20233;-77
2022/12/28 19:09:30;;;;;;;5.33;4.43;;;9.00;40.10;;;;;;10399970;28;20710;-77
2022/12/28 19:14:33;;;;;;;5.17;4.10;;;9.00;40.10;;;;;;10390569;28;20225;-77
2022/12/28 19:19:36;;;;;;;4.73;4.30;;;8.90;40.30;;;;;;10403166;28;20238;-77
2022/12/28 19:24:40;;;;;;;4.40;4.00;;;8.90;40.20;;;;;;10395785;28;20354;-77
2022/12/28 19:29:44;;;;;;;3.90;3.57;;;8.80;39.90;;;;;;10394128;28;20226;-77
2022/12/28 19:34:47;;;;;;;4.03;3.40;;;8.90;40.20;;;;;;10399130;28;20230;-77
2022/12/28 19:39:51;;;;;;;5.13;3.60;;;8.80;40.40;;;;;;10399234;28;20722;-77
2022/12/28 19:44:59;;;;;;;4.17;3.17;;;8.90;40.20;;;;;;10384443;28;20304;-77
2022/12/28 19:50:11;;;;;;;3.30;3.00;;;9.00;40.40;;;;;;10396009;28;20232;-76
2022/12/28 19:55:15;;;;;;;3.83;2.97;;;9.00;40.10;;;;;;10398122;28;20233;-77
2022/12/28 20:00:19;;;;;;;3.27;2.70;;;9.00;40.10;;;;;;10394223;28;20660;-77
2022/12/28 20:05:22;;;;;;;3.80;3.40;;;9.10;40.10;;;;;;10396385;28;20713;-77
2022/12/28 20:10:28;;;;;;;3.40;3.10;;;9.10;40.10;;;;;;10384805;28;20226;-77
2022/12/28 20:15:31;;;;;;;3.33;2.90;;;9.10;40.20;;;;;;10380973;28;20264;-77
2022/12/28 20:20:34;;;;;;;2.97;2.60;;;9.20;40.20;;;;;;10387071;28;20741;-77
2022/12/28 20:25:58;;;;;;;3.07;2.83;;;9.20;40.20;;;;;;10386970;28;20229;-77
2022/12/28 20:31:03;;;;;;;3.30;3.00;;;9.30;40.30;;;;;;10393088;28;20283;-72
2022/12/28 20:36:08;;;;;;;3.07;2.77;;;9.30;40.30;;;;;;10384608;28;20244;-76
2022/12/28 20:43:21;;;;;;;3.20;2.90;;;9.40;40.40;;;;;;10389120;28;20275;-76
2022/12/28 20:46:38;;;;;;;3.40;3.10;;;9.30;39.90;;;;;;10392156;28;20233;-77
2022/12/28 20:51:41;;;;;;;4.63;4.17;;;9.30;40.20;;;;;;10401444;28;20704;-77
2022/12/28 20:56:46;;;;;;;5.70;4.40;;;9.20;40.20;;;;;;10394381;28;20234;-77
2022/12/28 21:01:56;;;;;;;3.50;3.20;;;9.10;39.70;;;;;;10402685;28;20576;-77
2022/12/28 21:07:00;;;;;;;5.20;4.67;;;9.00;40.10;;;;;;10388390;28;20229;-77
2022/12/28 21:12:05;;;;;;;4.70;4.30;;;9.00;40.10;;;;;;10393278;28;20748;-76
2022/12/28 21:17:08;;;;;;;4.50;4.10;;;8.90;39.90;;;;;;10386511;28;20240;-76
2022/12/28 21:22:11;;;;;;;3.57;3.27;;;8.90;40.00;;;;;;10389788;28;20324;-76
2022/12/28 21:27:15;;;;;;;4.67;3.73;;;8.80;39.90;;;;;;10390597;28;20237;-76
2022/12/28 21:32:19;;;;;;;3.97;3.67;;;8.70;39.80;;;;;;10380183;28;20252;-77
2022/12/28 21:37:34;;;;;;;4.97;3.67;;;8.70;39.80;;;;;;10403576;28;20821;-77
2022/12/28 21:42:38;;;;;;;3.80;3.00;;;8.60;39.70;;;;;;10379697;28;20248;-77
2022/12/28 21:47:42;;;;;;;3.67;3.37;;;8.60;39.80;;;;;;10396307;28;20225;-77
2022/12/28 21:52:45;;;;;;;7.30;6.43;;;8.60;39.70;;;;;;10387098;28;20241;-77
2022/12/28 21:57:51;;;;;;;5.80;5.30;;;8.60;39.70;;;;;;10399482;28;20214;-77
2022/12/28 22:13:37;;;;;;;6.33;5.33;;;8.50;39.70;;;;;;10387714;28;20224;-77
2022/12/28 22:18:40;;;;;;;6.43;5.73;;;8.40;39.60;;;;;;10398586;28;20222;-77
2022/12/28 22:24:03;;;;;;;4.93;4.43;;;8.20;39.40;;;;;;10377297;28;20275;-77
2022/12/28 22:29:08;;;;;;;4.30;3.30;;;8.10;39.30;;;;;;10384754;28;20230;-76
2022/12/28 22:34:11;;;;;;;3.73;3.43;;;8.00;39.50;;;;;;10384697;28;20233;-77
2022/12/28 22:39:14;;;;;;;3.03;2.83;;;7.90;39.80;;;;;;10404331;28;20226;-77
2022/12/28 22:44:19;;;;;;;3.93;3.53;;;7.90;39.90;;;;;;10399026;28;20602;-77
2022/12/28 22:49:22;;;;;;;5.60;4.17;;;7.90;39.90;;;;;;10387006;28;20233;-76
2022/12/28 22:54:25;;;;;;;3.73;3.43;;;8.00;39.90;;;;;;10386878;28;20885;-76
2022/12/28 22:59:29;;;;;;;4.60;4.20;;;7.90;39.60;;;;;;10383496;28;20233;-77
2022/12/28 23:04:32;;;;;;;3.57;3.27;;;7.90;39.70;;;;;;10385911;28;20233;-77
2022/12/28 23:09:36;;;;;;;3.33;3.03;;;7.80;39.80;;;;;;10377574;28;20225;-76
2022/12/28 23:30:47;;;;;;;2.53;2.33;;;7.70;40.20;;;;;;10403811;28;20236;-77
2022/12/28 23:35:50;;;;;;;2.60;2.40;;;7.70;40.50;;;;;;10391228;28;20377;-77
2022/12/28 23:41:46;;;;;;;2.73;2.20;;;7.70;40.60;;;;;;10398577;28;20229;-77
2022/12/28 23:46:18;;;;;;;2.40;2.20;;;7.70;40.90;;;;;;10390761;28;20225;-77
2022/12/28 23:51:21;;;;;;;2.60;2.40;;;7.90;41.00;;;;;;10389589;28;21883;-77
2022/12/28 23:56:24;;;;;;;2.30;2.10;;;8.10;41.20;;;;;;10385025;28;20830;-77
